Time;durP1;ratioP1;P1;durP2;ratioP2;P2;SDS_P1;SDS_P2;PMS_P1;PMS_P2;Temp;Humidity;BMP_temperature;BMP_pressure;BME280_temperature;BME280_humidity;BME280_pressure;Samples;Min_cycle;Max_cycle;Signal;HPM_P1;HPM_P2
2023/08/08 00:00:40;;;;;;;9.90;4.30;;;;;;;-145.63;42.29;38163.88;5026878;28;20033;-65
2023/08/08 00:03:05;;;;;;;5.28;3.88;;;;;;;-145.63;42.03;38095.44;5043823;28;20038;-65
2023/08/08 00:05:31;;;;;;;7.70;3.78;;;;;;;-145.63;42.26;38130.63;5025333;28;20037;-65
2023/08/08 00:07:57;;;;;;;5.20;4.05;;;;;;;-145.63;42.36;38173.66;5037322;28;20195;-66
2023/08/08 00:10:22;;;;;;;5.03;3.40;;;;;;;-145.63;42.37;38189.28;5034648;28;20033;-65
2023/08/08 00:12:48;;;;;;;8.52;3.70;;;;;;;-145.63;42.18;38154.09;5027600;28;20021;-65
2023/08/08 00:15:13;;;;;;;5.90;3.95;;;;;;;-145.63;42.78;38175.59;5043465;28;20022;-65
2023/08/08 00:17:39;;;;;;;4.07;3.67;;;;;;;-145.63;42.64;38189.28;5024428;28;20026;-66
2023/08/08 00:20:07;;;;;;;4.00;3.70;;;;;;;-145.63;42.86;38212.75;5037873;28;20033;-66
2023/08/08 00:22:33;;;;;;;7.43;3.78;;;;;;;-145.63;43.25;38238.16;5033283;28;20215;-65
2023/08/08 00:24:58;;;;;;;4.57;3.47;;;;;;;-145.63;43.30;38257.72;5027624;28;20132;-65
2023/08/08 00:27:24;;;;;;;9.75;3.92;;;;;;;-145.63;43.09;38249.91;5042548;28;20037;-65
2023/08/08 00:29:50;;;;;;;4.65;3.65;;;;;;;-145.63;43.14;38234.25;5023734;28;20088;-65
2023/08/08 00:32:16;;;;;;;4.20;3.67;;;;;;;-145.63;42.99;38193.19;5037922;28;20025;-65
2023/08/08 00:34:42;;;;;;;4.35;3.40;;;;;;;-145.63;42.92;38202.97;5032187;28;20322;-65
2023/08/08 00:37:07;;;;;;;3.88;3.58;;;;;;;-145.63;43.13;38244.03;5023262;28;20045;-65
2023/08/08 00:39:33;;;;;;;4.65;3.78;;;;;;;-145.63;43.45;38240.13;5024858;28;20093;-66
2023/08/08 00:41:58;;;;;;;4.47;3.60;;;;;;;-145.63;43.25;38206.88;5029583;28;20041;-65
2023/08/08 00:44:24;;;;;;;3.78;3.47;;;;;;;-145.63;43.53;38263.59;5043052;28;20033;-65
2023/08/08 00:46:50;;;;;;;3.55;3.28;;;;;;;-145.63;43.34;38283.16;5031145;28;20030;-65
2023/08/08 00:49:15;;;;;;;4.10;3.70;;;;;;;-145.63;43.13;38247.94;5029290;28;20025;-64
2023/08/08 00:51:42;;;;;;;4.38;3.92;;;;;;;-145.63;43.30;38249.91;5040353;28;20033;-65
2023/08/08 00:54:08;;;;;;;4.63;3.78;;;;;;;-145.63;43.15;38261.63;5023774;28;20109;-65
2023/08/08 00:56:35;;;;;;;3.55;3.25;;;;;;;-145.63;43.38;38220.56;5041110;28;20337;-65
2023/08/08 00:59:02;;;;;;;3.97;3.60;;;;;;;-145.63;43.00;38281.19;5029306;28;20029;-65
2023/08/08 01:01:27;;;;;;;6.78;3.53;;;;;;;-145.63;42.90;38273.38;5031867;28;20067;-65
2023/08/08 01:03:53;;;;;;;4.38;3.30;;;;;;;-145.63;42.67;38240.13;5040597;28;20042;-66
2023/08/08 01:06:35;;;;;;;4.53;3.75;;;;;;;-145.63;42.96;38238.16;5027148;28;20033;-66
2023/08/08 01:09:08;;;;;;;9.13;3.95;;;;;;;-145.63;43.13;38290.97;5026080;28;20207;-66
2023/08/08 01:11:35;;;;;;;5.22;3.25;;;;;;;-145.63;43.25;38318.34;5043367;28;20078;-65
2023/08/08 01:14:03;;;;;;;3.97;3.67;;;;;;;-145.63;43.05;38285.09;5046699;28;20029;-64
2023/08/08 01:16:29;;;;;;;3.90;3.60;;;;;;;-145.63;43.30;38271.41;5037603;28;20136;-65
2023/08/08 01:18:57;;;;;;;4.00;3.60;;;;;;;-145.63;42.91;38251.84;5031021;28;20079;-65
2023/08/08 01:21:24;;;;;;;5.00;4.13;;;;;;;-145.63;43.11;38306.59;5046608;28;20065;-65
2023/08/08 01:23:59;;;;;;;4.25;3.65;;;;;;;-145.63;42.98;38353.53;5026660;28;20026;-65
2023/08/08 01:26:26;;;;;;;4.75;3.70;;;;;;;-145.63;43.17;38318.34;5042791;28;20037;-66
2023/08/08 01:28:55;;;;;;;5.38;3.60;;;;;;;-145.63;43.12;38287.06;5046410;28;20028;-65
2023/08/08 01:31:21;;;;;;;5.88;3.75;;;;;;;-145.63;43.59;38335.94;5038503;28;20029;-65
2023/08/08 01:33:47;;;;;;;3.65;3.30;;;;;;;-145.63;43.72;38308.56;5029942;28;20310;-65
2023/08/08 01:36:32;;;;;;;3.65;3.35;;;;;;;-145.63;43.71;38351.56;5046216;28;20029;-65
2023/08/08 01:39:04;;;;;;;4.63;3.20;;;;;;;-145.63;43.45;38332.03;5026357;28;20022;-65
2023/08/08 01:41:34;;;;;;;6.93;3.30;;;;;;;-145.63;43.26;38302.69;5032653;28;20026;-65
2023/08/08 01:44:02;;;;;;;7.10;3.40;;;;;;;-145.63;43.42;38357.44;5039184;28;20037;-64
2023/08/08 01:46:28;;;;;;;4.68;3.50;;;;;;;-145.63;43.24;38300.75;5037542;28;20057;-64
2023/08/08 01:48:54;;;;;;;5.03;3.20;;;;;;;-145.63;42.96;38324.19;5029028;28;20213;-66
2023/08/08 01:51:20;;;;;;;4.25;3.58;;;;;;;-145.63;43.06;38328.13;5046013;28;20021;-65
2023/08/08 01:53:45;;;;;;;4.10;3.42;;;;;;;-145.63;42.96;38261.63;5026854;28;20025;-65
2023/08/08 01:56:11;;;;;;;5.45;3.78;;;;;;;-145.63;42.60;38259.69;5046454;28;20045;-64
2023/08/08 01:58:37;;;;;;;6.65;3.72;;;;;;;-145.63;43.12;38292.91;5045726;28;20053;-64
2023/08/08 02:01:03;;;;;;;5.22;3.72;;;;;;;-145.63;43.02;38302.69;5040902;28;20295;-65
2023/08/08 02:03:28;;;;;;;5.57;3.67;;;;;;;-145.63;42.86;38290.97;5026095;28;20042;-65
2023/08/08 02:05:54;;;;;;;5.22;3.67;;;;;;;-145.63;42.87;38310.50;5045698;28;20033;-65
2023/08/08 02:08:19;;;;;;;3.75;3.45;;;;;;;-145.63;42.73;38281.19;5030352;28;20017;-65
2023/08/08 02:10:45;;;;;;;4.28;3.50;;;;;;;-145.63;42.92;38249.91;5036456;28;20032;-66
2023/08/08 02:13:11;;;;;;;4.28;3.88;;;;;;;-145.63;42.69;38298.78;5039683;28;20018;-66
2023/08/08 02:15:36;;;;;;;6.40;3.50;;;;;;;-145.63;42.81;38308.56;5025645;28;20026;-65
2023/08/08 02:18:03;;;;;;;6.25;3.55;;;;;;;-145.63;42.69;38255.78;5045463;28;20129;-64
2023/08/08 02:20:49;;;;;;;5.25;3.25;;;;;;;-145.63;42.63;38322.25;5025470;28;20330;-64
2023/08/08 02:23:15;;;;;;;4.68;3.40;;;;;;;-145.63;42.27;38289.00;5038919;28;20029;-65
2023/08/08 02:25:40;;;;;;;7.75;3.78;;;;;;;-145.63;42.44;38310.50;5035267;28;20318;-66
2023/08/08 02:28:06;;;;;;;8.38;3.60;;;;;;;-145.63;42.42;38300.75;5030816;28;20076;-65
2023/08/08 02:30:32;;;;;;;5.63;3.30;;;;;;;-145.63;42.16;38273.38;5044671;28;20037;-66
2023/08/08 02:32:57;;;;;;;5.95;3.55;;;;;;;-145.63;42.12;38253.81;5025441;28;20250;-66
2023/08/08 02:35:23;;;;;;;8.18;4.28;;;;;;;-145.63;41.91;38281.19;5040560;28;20029;-65
2023/08/08 02:37:49;;;;;;;3.80;3.33;;;;;;;-145.63;41.86;38228.41;5033989;28;20199;-65
2023/08/08 02:40:14;;;;;;;3.83;3.50;;;;;;;-145.63;41.81;38214.72;5025273;28;20030;-65
2023/08/08 02:42:40;;;;;;;6.10;3.47;;;;;;;-145.63;42.12;38218.63;5043432;28;20029;-65
2023/08/08 02:45:06;;;;;;;4.70;3.40;;;;;;;-145.63;42.35;38244.03;5025156;28;20026;-65
2023/08/08 02:47:32;;;;;;;4.93;3.72;;;;;;;-145.63;41.98;38226.44;5024940;28;20057;-65
2023/08/08 02:49:57;;;;;;;6.25;3.38;;;;;;;-145.63;42.01;38238.16;5037145;28;20040;-64
2023/08/08 02:52:23;;;;;;;5.97;4.10;;;;;;;-145.63;42.54;38261.63;5037574;28;20026;-64
2023/08/08 02:54:49;;;;;;;8.27;4.00;;;;;;;-145.63;42.26;38234.25;5025196;28;20036;-64
2023/08/08 02:57:15;;;;;;;4.68;3.65;;;;;;;-145.63;42.10;38206.88;5043691;28;20021;-65
2023/08/08 02:59:40;;;;;;;5.07;3.55;;;;;;;-145.63;42.01;38195.16;5044567;28;20021;-65
2023/08/08 03:02:06;;;;;;;5.55;3.85;;;;;;;-145.63;42.19;38212.75;5031450;28;20040;-65
2023/08/08 03:04:32;;;;;;;6.20;3.67;;;;;;;-145.63;42.09;38226.44;5024805;28;20068;-65
2023/08/08 03:06:57;;;;;;;7.05;3.65;;;;;;;-145.63;42.38;38234.25;5028401;28;20025;-65
2023/08/08 03:09:23;;;;;;;5.15;3.72;;;;;;;-145.63;41.98;38240.13;5044416;28;20027;-64
2023/08/08 03:11:49;;;;;;;4.18;3.80;;;;;;;-145.63;42.38;38281.19;5025577;28;20053;-65
2023/08/08 03:14:15;;;;;;;6.53;3.22;;;;;;;-145.63;42.23;38202.97;5038702;28;20087;-66
2023/08/08 03:16:40;;;;;;;7.82;4.15;;;;;;;-145.63;42.06;38247.94;5035232;28;20473;-65
2023/08/08 03:19:06;;;;;;;6.05;3.88;;;;;;;-145.63;41.76;38224.47;5029108;28;20128;-65
2023/08/08 03:21:32;;;;;;;5.63;3.88;;;;;;;-145.63;42.22;38269.47;5044117;28;20045;-65
2023/08/08 03:23:57;;;;;;;4.00;3.60;;;;;;;-145.63;41.80;38240.13;5024424;28;20033;-65
2023/08/08 03:26:24;;;;;;;5.97;3.50;;;;;;;-145.63;42.14;38195.16;5039081;28;20040;-66
2023/08/08 03:28:53;;;;;;;7.13;3.78;;;;;;;-145.63;41.94;38228.41;5033956;28;20033;-65
2023/08/08 03:31:19;;;;;;;14.52;4.25;;;;;;;-145.63;41.84;38238.16;5030303;28;20026;-65
2023/08/08 03:33:44;;;;;;;8.27;3.95;;;;;;;-145.63;41.63;38216.66;5042531;28;20022;-65
2023/08/08 03:36:10;;;;;;;6.65;4.10;;;;;;;-145.63;41.49;38259.69;5024305;28;20028;-65
2023/08/08 03:38:37;;;;;;;8.93;4.40;;;;;;;-145.63;41.33;38214.72;5040938;28;20060;-66
2023/08/08 03:41:04;;;;;;;10.93;4.10;;;;;;;-145.63;41.43;38169.75;5038497;28;20025;-65
2023/08/08 03:43:30;;;;;;;10.60;4.57;;;;;;;-145.63;41.30;38204.94;5036390;28;20507;-65
2023/08/08 03:45:55;;;;;;;5.45;4.13;;;;;;;-145.63;41.43;38242.09;5023941;28;20030;-65
2023/08/08 03:48:21;;;;;;;7.75;4.53;;;;;;;-145.63;41.20;38214.72;5024064;28;20080;-65
2023/08/08 03:50:46;;;;;;;8.70;4.00;;;;;;;-145.63;41.57;38158.00;5042212;28;20139;-66
2023/08/08 03:53:12;;;;;;;6.82;4.45;;;;;;;-145.63;41.17;38175.59;5030094;28;20040;-65
2023/08/08 03:55:38;;;;;;;4.28;3.88;;;;;;;-145.63;41.06;38175.59;5032872;28;20045;-65
2023/08/08 03:58:05;;;;;;;5.53;4.10;;;;;;;-145.63;41.24;38218.63;5043444;28;20028;-65
2023/08/08 04:00:31;;;;;;;5.88;3.88;;;;;;;-145.63;41.08;38185.38;5043547;28;20017;-65
2023/08/08 04:02:57;;;;;;;4.60;4.13;;;;;;;-145.63;41.71;38214.72;5043175;28;20025;-65
2023/08/08 04:05:22;;;;;;;5.20;4.18;;;;;;;-145.63;41.68;38279.22;5028604;28;20038;-66
2023/08/08 04:07:48;;;;;;;6.40;4.25;;;;;;;-145.63;41.37;38171.69;5023861;28;20040;-65
2023/08/08 04:10:14;;;;;;;6.20;4.28;;;;;;;-145.63;41.51;38255.78;5027793;28;20036;-64
2023/08/08 04:12:39;;;;;;;4.72;3.83;;;;;;;-145.63;41.42;38183.44;5042738;28;20029;-64
2023/08/08 04:15:05;;;;;;;6.20;4.25;;;;;;;-145.63;41.77;38218.63;5023648;28;20025;-66
2023/08/08 04:17:32;;;;;;;4.93;4.32;;;;;;;-145.63;41.55;38236.22;5039405;28;20253;-65
2023/08/08 04:19:58;;;;;;;6.53;4.10;;;;;;;-145.63;41.60;38197.13;5032033;28;20030;-65
2023/08/08 04:22:24;;;;;;;4.13;3.83;;;;;;;-145.63;41.72;38210.81;5029907;28;20032;-66
2023/08/08 04:24:49;;;;;;;4.53;3.90;;;;;;;-145.63;41.36;38158.00;5041495;28;20021;-65
2023/08/08 04:27:15;;;;;;;6.57;4.40;;;;;;;-145.63;41.57;38158.00;5023453;28;20033;-64
2023/08/08 04:29:40;;;;;;;6.88;4.13;;;;;;;-145.63;41.36;38175.59;5040301;28;20056;-64
2023/08/08 04:32:06;;;;;;;6.78;4.28;;;;;;;-145.63;41.80;38242.09;5043124;28;20037;-66
2023/08/08 04:34:32;;;;;;;4.40;3.95;;;;;;;-145.63;41.55;38181.47;5035599;28;20030;-65
2023/08/08 04:36:57;;;;;;;5.15;4.25;;;;;;;-145.63;41.56;38179.50;5023135;28;20030;-64
2023/08/08 04:39:23;;;;;;;7.07;4.25;;;;;;;-145.63;42.16;38226.44;5022402;28;20030;-66
2023/08/08 04:41:49;;;;;;;4.75;4.25;;;;;;;-145.63;41.79;38195.16;5027864;28;20223;-65
2023/08/08 04:44:14;;;;;;;5.35;4.00;;;;;;;-145.63;42.16;38236.22;5042845;28;20072;-65
2023/08/08 04:46:40;;;;;;;8.90;4.40;;;;;;;-145.63;42.27;38228.41;5034571;28;20030;-65
2023/08/08 04:49:06;;;;;;;6.90;4.30;;;;;;;-145.63;42.48;38269.47;5026951;28;20029;-65
2023/08/08 04:51:32;;;;;;;5.35;4.22;;;;;;;-145.63;42.41;38234.25;5043010;28;20032;-65
2023/08/08 04:53:58;;;;;;;4.93;4.40;;;;;;;-145.63;42.29;38242.09;5023872;28;20315;-65
2023/08/08 04:56:23;;;;;;;7.70;5.45;;;;;;;-145.63;42.47;38218.63;5037398;28;20036;-66
2023/08/08 04:58:49;;;;;;;6.43;4.20;;;;;;;-145.63;42.34;38175.59;5033305;28;20121;-65
2023/08/08 05:01:17;;;;;;;9.68;5.28;;;;;;;-145.63;42.31;38185.38;5027814;28;20194;-65
2023/08/08 05:03:43;;;;;;;10.20;5.47;;;;;;;-145.63;42.32;38199.06;5042196;28;20109;-65
2023/08/08 05:06:08;;;;;;;6.32;4.70;;;;;;;-145.63;42.56;38226.44;5023073;28;20054;-65
2023/08/08 05:08:34;;;;;;;5.50;4.75;;;;;;;-145.63;42.68;38171.69;5037372;28;20029;-64
2023/08/08 05:10:59;;;;;;;6.63;4.25;;;;;;;-145.63;43.45;38285.09;5031899;28;20041;-65
2023/08/08 05:13:25;;;;;;;8.52;5.55;;;;;;;-145.63;42.73;38212.75;5029171;28;20029;-64
2023/08/08 05:15:51;;;;;;;7.57;4.38;;;;;;;-145.63;42.81;38189.28;5041110;28;20041;-65
2023/08/08 05:18:17;;;;;;;7.50;4.82;;;;;;;-145.63;42.96;38171.69;5022990;28;20018;-65
2023/08/08 05:20:42;;;;;;;6.47;4.25;;;;;;;-145.63;42.58;38136.50;5039815;28;20213;-65
2023/08/08 05:23:08;;;;;;;6.93;5.45;;;;;;;-145.63;42.75;38195.16;5029448;28;20026;-65
2023/08/08 05:25:34;;;;;;;5.50;4.53;;;;;;;-145.63;42.58;38158.00;5030152;28;20033;-65
2023/08/08 05:27:59;;;;;;;8.02;4.97;;;;;;;-145.63;42.61;38158.00;5039886;28;20044;-65
2023/08/08 05:30:25;;;;;;;7.07;4.85;;;;;;;-145.63;42.39;38136.50;5022903;28;20243;-65
2023/08/08 05:32:51;;;;;;;5.35;4.47;;;;;;;-145.63;42.83;38191.25;5040508;28;20031;-65
2023/08/08 05:35:16;;;;;;;5.30;4.57;;;;;;;-145.63;42.59;38130.63;5029290;28;20072;-65
2023/08/08 05:37:42;;;;;;;6.05;4.70;;;;;;;-145.63;42.79;38152.16;5031100;28;20072;-65
2023/08/08 05:40:09;;;;;;;7.47;4.78;;;;;;;-145.63;42.69;38167.78;5038991;28;20103;-65
2023/08/08 05:42:35;;;;;;;5.05;4.63;;;;;;;-145.63;43.09;38167.78;5042090;28;20036;-65
2023/08/08 05:45:01;;;;;;;7.43;5.20;;;;;;;-145.63;43.07;38161.91;5023432;28;20030;-64
2023/08/08 05:47:29;;;;;;;6.15;4.90;;;;;;;-145.63;43.40;38218.63;5022779;28;20302;-65
2023/08/08 05:49:55;;;;;;;5.97;4.75;;;;;;;-145.63;42.98;38148.22;5034552;28;20044;-65
2023/08/08 05:52:21;;;;;;;5.28;4.75;;;;;;;-145.63;42.65;38183.44;5040505;28;20026;-65
2023/08/08 05:54:47;;;;;;;7.60;4.90;;;;;;;-145.63;42.71;38161.91;5026655;28;20029;-66
2023/08/08 05:57:13;;;;;;;10.95;4.88;;;;;;;-145.63;42.63;38134.53;5045656;28;20075;-64
2023/08/08 05:59:38;;;;;;;6.47;5.10;;;;;;;-145.63;42.78;38136.50;5029825;28;20021;-65
2023/08/08 06:02:04;;;;;;;6.53;4.68;;;;;;;-145.63;42.79;38171.69;5037070;28;20291;-64
2023/08/08 06:04:30;;;;;;;9.30;5.30;;;;;;;-145.63;43.57;38159.97;5045359;28;20056;-65
2023/08/08 06:06:55;;;;;;;10.88;5.30;;;;;;;-145.63;43.01;38140.41;5043970;28;20033;-66
2023/08/08 06:09:22;;;;;;;8.20;4.97;;;;;;;-145.63;43.58;38152.16;5025545;28;20026;-66
2023/08/08 06:11:48;;;;;;;7.07;5.32;;;;;;;-145.63;43.26;38156.06;5025775;28;20029;-66
2023/08/08 06:14:13;;;;;;;6.05;5.32;;;;;;;-145.63;44.02;38197.13;5037843;28;20342;-65
2023/08/08 06:16:39;;;;;;;8.10;5.07;;;;;;;-145.63;44.94;38253.81;5037891;28;20029;-65
2023/08/08 06:19:05;;;;;;;9.50;5.13;;;;;;;-145.63;44.76;38169.75;5028523;28;20029;-65
2023/08/08 06:21:31;;;;;;;9.82;5.25;;;;;;;-145.63;44.86;38169.75;5045504;28;20026;-66
2023/08/08 06:23:57;;;;;;;6.13;5.50;;;;;;;-145.63;44.64;38173.66;5027116;28;20022;-65
2023/08/08 06:26:23;;;;;;;9.52;5.70;;;;;;;-145.63;44.51;38150.19;5038846;28;20289;-65
2023/08/08 06:28:51;;;;;;;10.70;5.55;;;;;;;-145.63;44.52;38238.16;5036381;28;20049;-65
2023/08/08 06:31:17;;;;;;;8.05;5.63;;;;;;;-145.63;44.94;38206.88;5029893;28;20044;-65
2023/08/08 06:33:43;;;;;;;10.35;5.20;;;;;;;-145.63;44.84;38163.88;5045249;28;20033;-66
2023/08/08 06:36:09;;;;;;;9.23;6.10;;;;;;;-145.63;44.73;38191.25;5025330;28;20157;-66
2023/08/08 06:38:34;;;;;;;9.63;6.55;;;;;;;-145.63;44.39;38138.47;5040061;28;20018;-66
2023/08/08 06:41:02;;;;;;;8.95;5.78;;;;;;;-145.63;44.56;38101.31;5041386;28;20044;-65
2023/08/08 06:43:27;;;;;;;8.55;5.78;;;;;;;-145.63;44.22;38077.84;5038963;28;20038;-65
2023/08/08 06:45:53;;;;;;;8.07;5.57;;;;;;;-145.63;44.56;38159.97;5026021;28;20038;-66
2023/08/08 06:48:19;;;;;;;9.60;6.07;;;;;;;-145.63;43.90;38089.56;5044884;28;20029;-65
2023/08/08 06:50:45;;;;;;;9.65;6.05;;;;;;;-145.63;43.90;38083.72;5044692;28;20026;-66
2023/08/08 06:53:10;;;;;;;14.18;10.57;;;;;;;-145.63;44.33;38062.22;5044671;28;20210;-65
2023/08/08 06:55:36;;;;;;;11.32;7.63;;;;;;;-145.63;44.18;38068.06;5043394;28;20033;-66
2023/08/08 06:58:02;;;;;;;8.57;5.82;;;;;;;-145.63;43.89;38081.75;5042620;28;20044;-66
2023/08/08 07:00:28;;;;;;;9.05;6.22;;;;;;;-145.63;44.02;38083.72;5023406;28;20030;-65
2023/08/08 07:02:53;;;;;;;17.45;11.35;;;;;;;-145.63;43.72;38113.03;5041839;28;20029;-65
2023/08/08 07:05:19;;;;;;;9.85;6.10;;;;;;;-145.63;43.99;38116.94;5031851;28;20041;-65
2023/08/08 07:07:46;;;;;;;8.88;5.68;;;;;;;-145.63;44.65;38105.22;5032519;28;20036;-66
2023/08/08 07:10:12;;;;;;;6.65;6.00;;;;;;;-145.63;44.02;38115.00;5041135;28;20048;-65
2023/08/08 07:12:38;;;;;;;9.85;5.95;;;;;;;-145.63;44.12;38105.22;5024443;28;20064;-65
2023/08/08 07:15:07;;;;;;;13.40;6.47;;;;;;;-145.63;44.12;37315.41;5043095;28;20025;-65
2023/08/08 07:17:32;;;;;;;10.43;6.30;;;;;;;-145.63;43.26;38023.09;5029913;28;20795;-64
2023/08/08 07:19:58;;;;;;;68.18;11.50;;;;;;;-145.63;43.24;38038.75;5034220;28;20044;-65
2023/08/08 07:22:24;;;;;;;11.38;6.82;;;;;;;-145.63;43.30;38042.66;5037871;28;20101;-66
2023/08/08 07:24:50;;;;;;;6.53;5.85;;;;;;;-145.63;43.95;37984.00;5024667;28;20029;-65
2023/08/08 07:27:15;;;;;;;11.57;5.85;;;;;;;-145.63;43.69;38048.53;5044492;28;20080;-65
2023/08/08 07:29:41;;;;;;;41.78;8.70;;;;;;;-145.63;43.36;37984.00;5028690;28;20034;-65
2023/08/08 07:32:07;;;;;;;14.98;6.28;;;;;;;-145.63;43.38;37993.78;5034855;28;20307;-66
2023/08/08 07:34:33;;;;;;;11.68;6.82;;;;;;;-145.63;43.39;38005.50;5038056;28;20072;-65
2023/08/08 07:36:59;;;;;;;8.80;6.07;;;;;;;-145.63;43.15;37997.69;5024084;28;20057;-65
2023/08/08 07:39:25;;;;;;;21.40;15.40;;;;;;;-145.63;43.35;38052.44;5043790;28;20122;-65
2023/08/08 07:41:52;;;;;;;8.75;6.65;;;;;;;-145.63;43.36;38066.13;5040662;28;20021;-65
2023/08/08 07:44:17;;;;;;;12.13;6.90;;;;;;;-145.63;43.74;38046.56;5031571;28;20025;-66
2023/08/08 07:46:43;;;;;;;10.30;6.82;;;;;;;-145.63;43.66;38085.66;5023889;28;20080;-65
2023/08/08 07:49:09;;;;;;;9.77;6.47;;;;;;;-145.63;43.57;38105.22;5026576;28;20312;-65
2023/08/08 07:51:35;;;;;;;10.18;5.90;;;;;;;-145.63;43.55;38021.16;5043639;28;20038;-65
2023/08/08 07:54:01;;;;;;;12.50;7.30;;;;;;;-145.63;44.79;38032.88;5025762;28;20041;-66
2023/08/08 07:56:27;;;;;;;11.90;6.53;;;;;;;-145.63;45.74;38062.22;5036091;28;20203;-65
2023/08/08 07:58:52;;;;;;;14.82;7.53;;;;;;;-145.63;46.92;38124.78;5043561;28;20025;-66
2023/08/08 08:01:18;;;;;;;12.52;7.80;;;;;;;-145.63;46.67;38087.63;5039607;28;20080;-64
2023/08/08 08:03:45;;;;;;;9.13;7.47;;;;;;;-145.63;47.78;38089.56;5023806;28;20038;-65
2023/08/08 08:06:11;;;;;;;12.25;8.75;;;;;;;-145.63;48.59;38058.28;5042851;28;20040;-65
2023/08/08 08:08:37;;;;;;;11.82;7.55;;;;;;;-145.63;50.32;38097.41;5029037;28;20030;-65
2023/08/08 08:11:03;;;;;;;12.00;8.25;;;;;;;-145.63;50.37;38071.97;5033449;28;20023;-65
2023/08/08 08:13:29;;;;;;;12.60;8.35;;;;;;;-145.63;49.94;38091.53;5037546;28;20033;-65
2023/08/08 08:15:54;;;;;;;11.68;9.07;;;;;;;-145.63;49.64;38042.66;5024199;28;20025;-65
2023/08/08 08:18:20;;;;;;;9.00;7.93;;;;;;;-145.63;47.96;38124.78;5043254;28;20025;-65
2023/08/08 08:20:47;;;;;;;14.88;9.73;;;;;;;-145.63;48.56;38062.22;5027805;28;20326;-65
2023/08/08 08:23:12;;;;;;;14.38;9.07;;;;;;;-145.63;48.50;38060.25;5034629;28;20029;-65
2023/08/08 08:25:38;;;;;;;10.70;8.75;;;;;;;-145.63;47.22;38077.84;5036954;28;20060;-65
2023/08/08 08:28:04;;;;;;;15.65;9.13;;;;;;;-145.63;46.46;38064.16;5025014;28;20033;-65
2023/08/08 08:30:30;;;;;;;14.27;9.10;;;;;;;-145.63;46.74;38085.66;5043367;28;20033;-66
2023/08/08 08:32:56;;;;;;;13.80;8.82;;;;;;;-145.63;46.88;38032.88;5026448;28;20049;-65
2023/08/08 08:35:22;;;;;;;13.35;8.45;;;;;;;-145.63;47.38;38021.16;5035640;28;20079;-65
2023/08/08 08:37:48;;;;;;;9.20;7.80;;;;;;;-145.63;46.35;37960.53;5035408;28;20299;-65
2023/08/08 08:40:14;;;;;;;12.82;8.85;;;;;;;-145.63;47.04;37970.31;5023496;28;20319;-64
2023/08/08 08:42:41;;;;;;;9.85;8.88;;;;;;;-145.63;47.21;37997.69;5043265;28;20323;-65
2023/08/08 08:45:09;;;;;;;13.48;9.18;;;;;;;-145.63;47.67;37942.94;5024845;28;20018;-65
2023/08/08 08:47:36;;;;;;;9.60;8.45;;;;;;;-145.63;48.44;37976.19;5023235;28;20052;-65
2023/08/08 08:50:04;;;;;;;12.65;8.80;;;;;;;-145.63;47.33;37954.69;5032745;28;20116;-65
2023/08/08 08:52:32;;;;;;;11.45;9.90;;;;;;;-145.63;48.93;38007.47;5042971;28;20041;-65
2023/08/08 08:54:58;;;;;;;14.55;10.18;;;;;;;-145.63;49.25;37978.13;5042849;28;20318;-65
2023/08/08 08:57:24;;;;;;;15.05;9.93;;;;;;;-145.63;50.29;37972.28;5042761;28;20036;-65
2023/08/08 08:59:50;;;;;;;10.77;9.52;;;;;;;-145.63;49.51;37956.63;5027370;28;20038;-64
2023/08/08 09:02:20;;;;;;;12.30;10.05;;;;;;;-145.63;48.69;37946.84;5034148;28;20071;-64
2023/08/08 09:04:46;;;;;;;16.45;10.13;;;;;;;-145.63;49.31;37933.16;5035894;28;20323;-65
2023/08/08 09:07:13;;;;;;;12.73;9.70;;;;;;;-145.63;49.79;37958.59;5025403;28;20051;-65
2023/08/08 09:09:42;;;;;;;11.90;10.60;;;;;;;-145.63;50.09;37954.69;5042809;28;20071;-65
2023/08/08 09:12:08;;;;;;;11.40;10.25;;;;;;;-145.63;50.04;37960.53;5024600;28;20034;-65
2023/08/08 09:14:34;;;;;;;16.73;11.38;;;;;;;-145.63;49.86;37976.19;5036385;28;20039;-65
2023/08/08 09:17:00;;;;;;;12.10;10.55;;;;;;;-145.63;49.21;37937.09;5033901;28;20048;-65
2023/08/08 09:19:26;;;;;;;13.25;10.57;;;;;;;-145.63;49.21;37956.63;5026728;28;20038;-66
2023/08/08 09:21:52;;;;;;;17.23;11.18;;;;;;;-145.63;49.05;37911.66;5042701;28;20034;-65
2023/08/08 09:24:19;;;;;;;13.45;9.35;;;;;;;-145.63;47.15;37913.63;5023978;28;20022;-65
2023/08/08 09:26:45;;;;;;;14.05;10.40;;;;;;;-145.63;48.51;37905.81;5041454;28;20025;-65
2023/08/08 09:29:14;;;;;;;15.50;10.52;;;;;;;-145.63;48.14;37915.56;5036411;28;20025;-65
2023/08/08 09:31:39;;;;;;;16.08;10.52;;;;;;;-145.63;48.93;37890.16;5032323;28;20070;-65
2023/08/08 09:34:05;;;;;;;12.30;11.00;;;;;;;-145.63;49.29;37929.25;5045236;28;20318;-65
2023/08/08 09:36:32;;;;;;;14.15;9.90;;;;;;;-145.63;48.73;37913.63;5026595;28;20223;-65
2023/08/08 09:38:58;;;;;;;17.00;10.55;;;;;;;-145.63;49.30;37878.44;5043038;28;20025;-68
2023/08/08 09:41:24;;;;;;;13.27;10.15;;;;;;;-145.63;49.08;37901.88;5043834;28;20059;-65
2023/08/08 09:43:52;;;;;;;12.60;11.00;;;;;;;-145.63;49.23;37941.00;5038904;28;20079;-66
2023/08/08 09:46:22;;;;;;;14.52;10.93;;;;;;;-145.63;48.62;37878.44;5026079;28;20045;-65
2023/08/08 09:48:48;;;;;;;18.88;11.20;;;;;;;-145.63;48.07;37884.28;5026292;28;20109;-66
2023/08/08 09:51:14;;;;;;;16.17;9.30;;;;;;;-145.63;47.08;37886.25;5044841;28;20310;-65
2023/08/08 09:53:41;;;;;;;11.55;9.63;;;;;;;-145.63;47.41;37854.97;5030667;28;20029;-64
2023/08/08 09:56:07;;;;;;;13.23;9.75;;;;;;;-145.63;46.51;37878.44;5036144;28;20033;-65
2023/08/08 09:58:34;;;;;;;17.73;9.70;;;;;;;-145.63;46.39;37880.38;5041033;28;20021;-65
2023/08/08 10:01:00;;;;;;;13.68;9.75;;;;;;;-145.63;45.85;37813.91;5026137;28;20026;-65
2023/08/08 10:03:26;;;;;;;14.07;10.23;;;;;;;-145.63;45.47;37299.78;5045621;28;20056;-65
2023/08/08 10:05:52;;;;;;;17.58;10.38;;;;;;;-145.63;45.22;37860.84;5030231;28;20037;-65
2023/08/08 10:08:19;;;;;;;16.65;10.20;;;;;;;-145.63;45.72;37811.97;5036577;28;20033;-65
2023/08/08 10:10:50;;;;;;;11.25;9.27;;;;;;;-145.63;46.61;37784.59;5039574;28;20021;-67
2023/08/08 10:13:23;;;;;;;13.20;8.83;;;;;;;-145.63;46.36;37776.78;5027687;28;20030;-66
2023/08/08 10:15:50;;;;;;;15.82;11.40;;;;;;;-145.63;45.06;37780.69;5045671;28;20034;-65
2023/08/08 10:18:16;;;;;;;15.57;9.82;;;;;;;-145.63;44.83;37784.59;5026943;28;20021;-65
2023/08/08 10:20:53;;;;;;;15.68;9.85;;;;;;;-145.63;45.01;37794.38;5039850;28;20021;-66
2023/08/08 10:23:20;;;;;;;13.30;9.77;;;;;;;-145.63;45.07;37753.31;5034605;28;20033;-66
2023/08/08 10:25:47;;;;;;;17.27;11.18;;;;;;;-145.63;45.64;37767.00;5031942;28;20071;-66
2023/08/08 10:28:17;;;;;;;12.65;9.73;;;;;;;-145.63;46.19;37778.72;5045180;28;20326;-65
2023/08/08 10:30:43;;;;;;;14.55;12.25;;;;;;;-145.63;44.98;37802.19;5045839;28;20083;-65
2023/08/08 10:33:20;;;;;;;19.92;11.73;;;;;;;-145.63;44.84;37798.28;5040672;28;20319;-66
2023/08/08 10:35:59;;;;;;;16.63;12.07;;;;;;;-145.63;44.24;37796.31;5024432;28;20105;-65
2023/08/08 10:38:26;;;;;;;18.55;11.55;;;;;;;-145.63;44.31;37745.50;5025053;28;20025;-64
2023/08/08 10:40:59;;;;;;;13.27;9.95;;;;;;;-145.63;44.72;37759.19;5026837;28;20025;-65
2023/08/08 10:43:29;;;;;;;17.70;11.98;;;;;;;-145.63;44.19;37792.41;5025059;28;20141;-65
2023/08/08 10:46:01;;;;;;;13.05;11.65;;;;;;;-145.63;43.93;37722.03;5024970;28;20029;-65
2023/08/08 10:48:27;;;;;;;;;;;;;;;-145.63;44.14;37733.75;5025499;28;20026;-66
2023/08/08 10:50:58;;;;;;;15.25;11.98;;;;;;;-145.63;44.67;37753.31;5040007;28;19912;-66
2023/08/08 10:53:28;;;;;;;16.15;11.23;;;;;;;-145.63;44.77;37397.53;5033500;28;20018;-66
2023/08/08 10:56:00;;;;;;;12.10;10.77;;;;;;;-145.63;44.18;37737.66;5033368;28;20044;-66
2023/08/08 10:58:38;;;;;;;13.75;10.93;;;;;;;-145.63;44.56;37706.38;5044478;28;20022;-66
2023/08/08 11:01:09;;;;;;;19.98;13.15;;;;;;;-145.63;44.08;37745.50;5044746;28;20029;-66
2023/08/08 11:03:41;;;;;;;14.93;10.75;;;;;;;-145.63;44.11;37745.50;5044313;28;20057;-65
2023/08/08 11:06:08;;;;;;;12.32;10.45;;;;;;;-145.63;44.80;37716.16;5027914;28;20040;-66
2023/08/08 11:08:36;;;;;;;12.85;9.88;;;;;;;-145.63;45.09;37694.66;5024582;28;20044;-65
2023/08/08 11:11:03;;;;;;;14.35;10.75;;;;;;;-145.63;44.46;37700.53;5032711;28;20041;-65